sensor_id;sensor_type;location;lat;lon;timestamp;pressure;altitude;pressure_sealevel;temperature;humidity
3748;BME280;1889;50.058;8.688;2023-02-17T00:01:43;100965.20;;;10.70;65.61
3748;BME280;1889;50.058;8.688;2023-02-17T00:04:13;100975.33;;;10.60;66.00
3748;BME280;1889;50.058;8.688;2023-02-17T00:06:42;100974.01;;;10.57;66.08
3748;BME280;1889;50.058;8.688;2023-02-17T00:09:11;100971.84;;;10.53;66.37
3748;BME280;1889;50.058;8.688;2023-02-17T00:11:41;100977.21;;;10.20;67.82
3748;BME280;1889;50.058;8.688;2023-02-17T00:14:12;100974.53;;;10.30;67.41
3748;BME280;1889;50.058;8.688;2023-02-17T00:16:42;100962.20;;;10.54;66.54
3748;BME280;1889;50.058;8.688;2023-02-17T00:19:12;100967.02;;;10.48;66.61
3748;BME280;1889;50.058;8.688;2023-02-17T00:21:56;100962.13;;;10.67;66.20
3748;BME280;1889;50.058;8.688;2023-02-17T00:24:27;100955.98;;;10.70;65.99
3748;BME280;1889;50.058;8.688;2023-02-17T00:26:58;100954.70;;;10.59;66.40
3748;BME280;1889;50.058;8.688;2023-02-17T00:29:27;100952.52;;;10.62;66.40
3748;BME280;1889;50.058;8.688;2023-02-17T00:31:57;100950.68;;;10.76;66.08
3748;BME280;1889;50.058;8.688;2023-02-17T00:34:26;100945.86;;;10.73;66.07
3748;BME280;1889;50.058;8.688;2023-02-17T00:36:55;100946.30;;;10.75;65.98
3748;BME280;1889;50.058;8.688;2023-02-17T00:39:25;100942.30;;;10.83;65.83
3748;BME280;1889;50.058;8.688;2023-02-17T00:41:54;100944.89;;;10.89;65.79
3748;BME280;1889;50.058;8.688;2023-02-17T00:44:24;100948.83;;;10.93;65.71
3748;BME280;1889;50.058;8.688;2023-02-17T00:46:53;100948.34;;;11.01;65.52
3748;BME280;1889;50.058;8.688;2023-02-17T00:49:24;100950.09;;;11.02;65.47
3748;BME280;1889;50.058;8.688;2023-02-17T00:51:54;100958.00;;;10.99;65.70
3748;BME280;1889;50.058;8.688;2023-02-17T00:54:23;100958.39;;;11.08;65.52
3748;BME280;1889;50.058;8.688;2023-02-17T00:56:52;100960.84;;;10.61;66.71
3748;BME280;1889;50.058;8.688;2023-02-17T00:59:22;100948.88;;;10.81;66.42
3748;BME280;1889;50.058;8.688;2023-02-17T01:01:51;100947.48;;;10.96;66.00
3748;BME280;1889;50.058;8.688;2023-02-17T01:04:20;100950.98;;;11.01;65.76
3748;BME280;1889;50.058;8.688;2023-02-17T01:06:50;100954.19;;;10.78;66.47
3748;BME280;1889;50.058;8.688;2023-02-17T01:09:19;100959.37;;;10.92;66.08
3748;BME280;1889;50.058;8.688;2023-02-17T01:11:49;100953.27;;;10.82;66.29
3748;BME280;1889;50.058;8.688;2023-02-17T01:14:18;100946.59;;;10.97;66.04
3748;BME280;1889;50.058;8.688;2023-02-17T01:16:48;100958.05;;;10.92;65.89
3748;BME280;1889;50.058;8.688;2023-02-17T01:19:18;100962.09;;;10.75;66.14
3748;BME280;1889;50.058;8.688;2023-02-17T01:21:48;100963.11;;;10.45;67.59
3748;BME280;1889;50.058;8.688;2023-02-17T01:24:17;100963.88;;;10.62;67.12
3748;BME280;1889;50.058;8.688;2023-02-17T01:26:46;100963.04;;;10.56;67.19
3748;BME280;1889;50.058;8.688;2023-02-17T01:29:16;100962.66;;;10.43;67.70
3748;BME280;1889;50.058;8.688;2023-02-17T01:31:45;100961.35;;;10.44;67.75
3748;BME280;1889;50.058;8.688;2023-02-17T01:34:14;100961.38;;;10.35;67.98
3748;BME280;1889;50.058;8.688;2023-02-17T01:36:44;100960.00;;;10.47;67.79
3748;BME280;1889;50.058;8.688;2023-02-17T01:39:16;100952.98;;;10.48;67.91
3748;BME280;1889;50.058;8.688;2023-02-17T01:41:46;100949.80;;;10.71;67.35
3748;BME280;1889;50.058;8.688;2023-02-17T01:44:20;100947.96;;;10.88;67.02
3748;BME280;1889;50.058;8.688;2023-02-17T01:46:52;100944.84;;;11.01;66.69
3748;BME280;1889;50.058;8.688;2023-02-17T01:52:17;100936.16;;;10.82;67.12
3748;BME280;1889;50.058;8.688;2023-02-17T01:54:51;100936.50;;;10.98;66.75
3748;BME280;1889;50.058;8.688;2023-02-17T01:57:18;100935.95;;;11.14;66.28
3748;BME280;1889;50.058;8.688;2023-02-17T01:59:49;100926.54;;;11.40;65.38
3748;BME280;1889;50.058;8.688;2023-02-17T02:02:19;100914.09;;;11.59;64.55
3748;BME280;1889;50.058;8.688;2023-02-17T02:04:50;100908.37;;;11.59;64.50
3748;BME280;1889;50.058;8.688;2023-02-17T02:07:24;100915.84;;;11.58;64.63
3748;BME280;1889;50.058;8.688;2023-02-17T02:09:54;100910.42;;;11.73;63.84
3748;BME280;1889;50.058;8.688;2023-02-17T02:12:29;100908.63;;;11.80;63.65
3748;BME280;1889;50.058;8.688;2023-02-17T02:15:05;100895.87;;;11.82;63.56
3748;BME280;1889;50.058;8.688;2023-02-17T02:17:45;100895.38;;;11.86;63.46
3748;BME280;1889;50.058;8.688;2023-02-17T02:26:09;100866.59;;;11.60;64.19
3748;BME280;1889;50.058;8.688;2023-02-17T02:34:42;100869.50;;;11.33;66.12
3748;BME280;1889;50.058;8.688;2023-02-17T02:37:20;100857.74;;;11.19;67.08
3748;BME280;1889;50.058;8.688;2023-02-17T02:39:47;100850.13;;;11.37;66.16
3748;BME280;1889;50.058;8.688;2023-02-17T02:42:24;100855.83;;;11.38;66.67
3748;BME280;1889;50.058;8.688;2023-02-17T02:44:50;100849.52;;;11.56;66.32
3748;BME280;1889;50.058;8.688;2023-02-17T02:47:56;100846.22;;;11.79;65.59
3748;BME280;1889;50.058;8.688;2023-02-17T02:50:49;100850.55;;;11.84;65.34
3748;BME280;1889;50.058;8.688;2023-02-17T02:53:35;100847.37;;;11.93;65.23
3748;BME280;1889;50.058;8.688;2023-02-17T02:59:21;100830.54;;;12.04;65.28
3748;BME280;1889;50.058;8.688;2023-02-17T03:02:26;100827.45;;;12.05;65.60
3748;BME280;1889;50.058;8.688;2023-02-17T03:08:07;100827.39;;;12.42;64.76
3748;BME280;1889;50.058;8.688;2023-02-17T03:10:28;100819.01;;;12.44;64.82
3748;BME280;1889;50.058;8.688;2023-02-17T03:13:02;100814.27;;;12.38;65.03
3748;BME280;1889;50.058;8.688;2023-02-17T03:15:33;100819.59;;;12.33;65.41
3748;BME280;1889;50.058;8.688;2023-02-17T03:18:03;100816.84;;;12.41;65.40
3748;BME280;1889;50.058;8.688;2023-02-17T03:20:38;100812.69;;;12.56;64.92
3748;BME280;1889;50.058;8.688;2023-02-17T03:23:08;100805.84;;;12.73;64.36
3748;BME280;1889;50.058;8.688;2023-02-17T03:25:37;100810.83;;;12.63;64.38
3748;BME280;1889;50.058;8.688;2023-02-17T03:28:06;100811.85;;;12.52;64.87
3748;BME280;1889;50.058;8.688;2023-02-17T03:30:36;100812.84;;;12.45;64.87
3748;BME280;1889;50.058;8.688;2023-02-17T03:33:05;100818.98;;;12.47;65.08
3748;BME280;1889;50.058;8.688;2023-02-17T03:35:35;100817.88;;;12.62;64.39
3748;BME280;1889;50.058;8.688;2023-02-17T03:38:04;100817.80;;;12.67;64.25
3748;BME280;1889;50.058;8.688;2023-02-17T03:40:34;100824.94;;;12.60;64.19
3748;BME280;1889;50.058;8.688;2023-02-17T03:43:03;100812.30;;;12.52;64.70
3748;BME280;1889;50.058;8.688;2023-02-17T03:45:35;100813.70;;;12.47;64.75
3748;BME280;1889;50.058;8.688;2023-02-17T03:48:04;100820.10;;;12.59;64.54
3748;BME280;1889;50.058;8.688;2023-02-17T03:50:34;100816.70;;;12.51;64.70
3748;BME280;1889;50.058;8.688;2023-02-17T03:53:03;100814.27;;;12.38;65.44
3748;BME280;1889;50.058;8.688;2023-02-17T03:55:32;100813.42;;;12.34;65.84
3748;BME280;1889;50.058;8.688;2023-02-17T03:58:02;100812.30;;;12.52;65.24
3748;BME280;1889;50.058;8.688;2023-02-17T04:00:31;100811.39;;;12.54;65.22
3748;BME280;1889;50.058;8.688;2023-02-17T04:03:01;100803.17;;;12.44;65.39
3748;BME280;1889;50.058;8.688;2023-02-17T04:05:30;100808.98;;;12.38;65.52
3748;BME280;1889;50.058;8.688;2023-02-17T04:07:59;100809.29;;;12.48;65.39
3748;BME280;1889;50.058;8.688;2023-02-17T04:10:29;100807.14;;;12.43;65.57
3748;BME280;1889;50.058;8.688;2023-02-17T04:12:58;100820.53;;;12.31;66.05
3748;BME280;1889;50.058;8.688;2023-02-17T04:15:27;100807.58;;;12.44;65.71
3748;BME280;1889;50.058;8.688;2023-02-17T04:17:57;100813.07;;;12.58;65.36
3748;BME280;1889;50.058;8.688;2023-02-17T04:20:26;100817.09;;;12.55;65.31
3748;BME280;1889;50.058;8.688;2023-02-17T04:22:55;100814.24;;;12.69;64.85
3748;BME280;1889;50.058;8.688;2023-02-17T04:25:25;100815.44;;;12.77;64.69
3748;BME280;1889;50.058;8.688;2023-02-17T04:27:54;100806.36;;;12.66;64.89
3748;BME280;1889;50.058;8.688;2023-02-17T04:30:23;100814.94;;;12.52;65.62
3748;BME280;1889;50.058;8.688;2023-02-17T04:32:53;100813.16;;;12.54;65.79
3748;BME280;1889;50.058;8.688;2023-02-17T04:35:22;100813.95;;;12.59;65.49
3748;BME280;1889;50.058;8.688;2023-02-17T04:37:52;100822.27;;;12.63;65.34
3748;BME280;1889;50.058;8.688;2023-02-17T04:40:21;100812.94;;;12.68;65.56
3748;BME280;1889;50.058;8.688;2023-02-17T04:42:50;100812.73;;;12.53;65.96
3748;BME280;1889;50.058;8.688;2023-02-17T04:45:20;100808.56;;;12.65;65.85
3748;BME280;1889;50.058;8.688;2023-02-17T04:47:50;100811.48;;;12.77;65.44
3748;BME280;1889;50.058;8.688;2023-02-17T04:50:19;100811.95;;;12.75;65.41
3748;BME280;1889;50.058;8.688;2023-02-17T04:52:48;100817.13;;;12.21;67.33
3748;BME280;1889;50.058;8.688;2023-02-17T04:55:18;100817.13;;;12.52;66.78
3748;BME280;1889;50.058;8.688;2023-02-17T04:57:47;100821.52;;;12.82;65.73
3748;BME280;1889;50.058;8.688;2023-02-17T05:00:17;100817.64;;;12.77;65.90
3748;BME280;1889;50.058;8.688;2023-02-17T05:02:46;100816.30;;;12.79;66.11
3748;BME280;1889;50.058;8.688;2023-02-17T05:05:15;100816.64;;;12.84;65.92
3748;BME280;1889;50.058;8.688;2023-02-17T05:07:46;100812.95;;;12.66;66.57
3748;BME280;1889;50.058;8.688;2023-02-17T05:10:16;100812.63;;;12.89;65.95
3748;BME280;1889;50.058;8.688;2023-02-17T05:12:46;100815.77;;;12.84;66.23
3748;BME280;1889;50.058;8.688;2023-02-17T05:15:15;100816.36;;;12.74;66.51
3748;BME280;1889;50.058;8.688;2023-02-17T05:17:45;100819.28;;;12.84;66.55
3748;BME280;1889;50.058;8.688;2023-02-17T05:20:14;100822.52;;;12.75;67.11
3748;BME280;1889;50.058;8.688;2023-02-17T05:22:43;100819.18;;;12.90;66.47
3748;BME280;1889;50.058;8.688;2023-02-17T05:25:13;100823.27;;;12.83;67.18
3748;BME280;1889;50.058;8.688;2023-02-17T05:27:42;100828.31;;;12.71;67.84
3748;BME280;1889;50.058;8.688;2023-02-17T05:30:11;100820.30;;;12.76;67.74
3748;BME280;1889;50.058;8.688;2023-02-17T05:32:41;100816.05;;;12.94;67.23
3748;BME280;1889;50.058;8.688;2023-02-17T05:35:10;100820.00;;;12.95;67.18
3748;BME280;1889;50.058;8.688;2023-02-17T05:37:40;100815.22;;;12.90;67.57
3748;BME280;1889;50.058;8.688;2023-02-17T05:40:10;100821.92;;;12.84;68.00
3748;BME280;1889;50.058;8.688;2023-02-17T05:42:40;100823.14;;;12.90;67.86
3748;BME280;1889;50.058;8.688;2023-02-17T05:45:09;100820.02;;;12.94;67.84
3748;BME280;1889;50.058;8.688;2023-02-17T05:47:39;100820.36;;;12.99;67.86
3748;BME280;1889;50.058;8.688;2023-02-17T05:50:08;100820.34;;;13.01;67.87
3748;BME280;1889;50.058;8.688;2023-02-17T05:52:37;100819.44;;;13.02;67.78
3748;BME280;1889;50.058;8.688;2023-02-17T05:55:07;100817.20;;;13.05;67.90
3748;BME280;1889;50.058;8.688;2023-02-17T05:57:36;100835.30;;;13.02;68.04
3748;BME280;1889;50.058;8.688;2023-02-17T06:00:06;100831.88;;;12.97;68.44
3748;BME280;1889;50.058;8.688;2023-02-17T06:02:36;100838.89;;;12.70;69.47
3748;BME280;1889;50.058;8.688;2023-02-17T06:05:05;100834.70;;;12.83;69.27
3748;BME280;1889;50.058;8.688;2023-02-17T06:07:35;100838.00;;;12.97;68.88
3748;BME280;1889;50.058;8.688;2023-02-17T06:10:06;100834.26;;;12.84;69.08
3748;BME280;1889;50.058;8.688;2023-02-17T06:12:35;100830.77;;;12.82;69.56
3748;BME280;1889;50.058;8.688;2023-02-17T06:15:05;100832.75;;;12.68;70.26
3748;BME280;1889;50.058;8.688;2023-02-17T06:17:35;100825.97;;;12.80;69.94
3748;BME280;1889;50.058;8.688;2023-02-17T06:20:05;100823.77;;;12.81;69.99
3748;BME280;1889;50.058;8.688;2023-02-17T06:22:34;100810.89;;;12.86;69.81
3748;BME280;1889;50.058;8.688;2023-02-17T06:25:04;100819.55;;;12.96;69.58
3748;BME280;1889;50.058;8.688;2023-02-17T06:27:35;100821.70;;;12.98;69.44
3748;BME280;1889;50.058;8.688;2023-02-17T06:30:05;100830.42;;;13.05;69.21
3748;BME280;1889;50.058;8.688;2023-02-17T06:32:34;100828.69;;;13.02;69.45
3748;BME280;1889;50.058;8.688;2023-02-17T06:35:04;100827.48;;;12.96;69.72
3748;BME280;1889;50.058;8.688;2023-02-17T06:37:33;100810.04;;;12.84;70.44
3748;BME280;1889;50.058;8.688;2023-02-17T06:40:03;100814.64;;;12.98;70.02
3748;BME280;1889;50.058;8.688;2023-02-17T06:42:32;100811.80;;;12.84;70.67
3748;BME280;1889;50.058;8.688;2023-02-17T06:45:02;100818.77;;;12.61;71.92
3748;BME280;1889;50.058;8.688;2023-02-17T06:47:33;100820.36;;;12.73;71.70
3748;BME280;1889;50.058;8.688;2023-02-17T06:50:04;100835.72;;;12.75;71.43
3748;BME280;1889;50.058;8.688;2023-02-17T06:52:33;100830.33;;;12.52;72.68
3748;BME280;1889;50.058;8.688;2023-02-17T06:55:03;100831.55;;;12.58;72.76
3748;BME280;1889;50.058;8.688;2023-02-17T06:57:32;100837.16;;;12.67;72.51
3748;BME280;1889;50.058;8.688;2023-02-17T07:00:03;100848.83;;;12.51;73.22
3748;BME280;1889;50.058;8.688;2023-02-17T07:02:32;100858.70;;;12.38;74.12
3748;BME280;1889;50.058;8.688;2023-02-17T07:05:02;100853.30;;;12.47;73.84
3748;BME280;1889;50.058;8.688;2023-02-17T07:07:31;100854.11;;;12.51;73.83
3748;BME280;1889;50.058;8.688;2023-02-17T07:10:01;100852.44;;;12.75;72.86
3748;BME280;1889;50.058;8.688;2023-02-17T07:12:30;100847.72;;;12.67;73.22
3748;BME280;1889;50.058;8.688;2023-02-17T07:14:59;100841.86;;;12.77;72.71
3748;BME280;1889;50.058;8.688;2023-02-17T07:17:29;100856.04;;;12.71;73.06
3748;BME280;1889;50.058;8.688;2023-02-17T07:19:58;100850.78;;;12.68;72.90
3748;BME280;1889;50.058;8.688;2023-02-17T07:22:27;100871.44;;;12.72;73.24
3748;BME280;1889;50.058;8.688;2023-02-17T07:24:57;100861.23;;;12.76;72.97
3748;BME280;1889;50.058;8.688;2023-02-17T07:27:26;100869.79;;;12.93;72.26
3748;BME280;1889;50.058;8.688;2023-02-17T07:29:56;100873.85;;;12.87;72.76
3748;BME280;1889;50.058;8.688;2023-02-17T07:32:25;100865.17;;;13.06;71.91
3748;BME280;1889;50.058;8.688;2023-02-17T07:34:54;100864.61;;;12.87;72.91
3748;BME280;1889;50.058;8.688;2023-02-17T07:37:23;100861.95;;;12.88;72.99
3748;BME280;1889;50.058;8.688;2023-02-17T07:39:53;100866.74;;;12.60;74.21
3748;BME280;1889;50.058;8.688;2023-02-17T07:42:26;100870.32;;;12.88;73.26
3748;BME280;1889;50.058;8.688;2023-02-17T07:44:55;100872.33;;;12.71;74.16
3748;BME280;1889;50.058;8.688;2023-02-17T07:47:24;100876.33;;;12.68;74.02
3748;BME280;1889;50.058;8.688;2023-02-17T07:49:54;100874.20;;;12.63;74.44
3748;BME280;1889;50.058;8.688;2023-02-17T07:52:23;100874.51;;;13.01;73.16
3748;BME280;1889;50.058;8.688;2023-02-17T07:54:52;100870.50;;;12.74;74.13
3748;BME280;1889;50.058;8.688;2023-02-17T07:57:23;100862.78;;;12.60;74.95
3748;BME280;1889;50.058;8.688;2023-02-17T07:59:52;100862.42;;;12.56;74.82
3748;BME280;1889;50.058;8.688;2023-02-17T08:02:22;100869.00;;;12.88;73.74
3748;BME280;1889;50.058;8.688;2023-02-17T08:04:51;100873.78;;;12.90;73.60
3748;BME280;1889;50.058;8.688;2023-02-17T08:07:21;100873.31;;;12.93;73.46
3748;BME280;1889;50.058;8.688;2023-02-17T08:09:50;100873.33;;;12.92;73.39
3748;BME280;1889;50.058;8.688;2023-02-17T08:12:37;100860.73;;;13.09;72.49
3748;BME280;1889;50.058;8.688;2023-02-17T08:15:24;100856.50;;;12.69;73.52
3748;BME280;1889;50.058;8.688;2023-02-17T08:17:53;100862.46;;;12.82;73.28
3748;BME280;1889;50.058;8.688;2023-02-17T08:20:23;100865.11;;;13.10;72.54
3748;BME280;1889;50.058;8.688;2023-02-17T08:22:52;100861.13;;;13.12;72.25
3748;BME280;1889;50.058;8.688;2023-02-17T08:25:23;100856.52;;;13.26;71.77
3748;BME280;1889;50.058;8.688;2023-02-17T08:27:52;100854.95;;;13.40;71.26
3748;BME280;1889;50.058;8.688;2023-02-17T08:30:22;100842.11;;;13.44;70.94
3748;BME280;1889;50.058;8.688;2023-02-17T08:32:51;100858.88;;;13.43;70.44
3748;BME280;1889;50.058;8.688;2023-02-17T08:35:21;100864.66;;;13.39;70.54
3748;BME280;1889;50.058;8.688;2023-02-17T08:37:50;100863.80;;;13.10;71.25
3748;BME280;1889;50.058;8.688;2023-02-17T08:40:19;100855.88;;;13.09;71.32
3748;BME280;1889;50.058;8.688;2023-02-17T08:42:49;100855.73;;;13.21;71.31
3748;BME280;1889;50.058;8.688;2023-02-17T08:45:18;100854.05;;;13.41;70.65
3748;BME280;1889;50.058;8.688;2023-02-17T08:47:47;100863.96;;;13.29;70.63
3748;BME280;1889;50.058;8.688;2023-02-17T08:50:18;100850.63;;;13.35;70.59
3748;BME280;1889;50.058;8.688;2023-02-17T08:52:47;100845.92;;;13.53;70.01
3748;BME280;1889;50.058;8.688;2023-02-17T08:55:16;100838.03;;;13.24;71.01
3748;BME280;1889;50.058;8.688;2023-02-17T08:57:47;100843.13;;;13.36;70.78
3748;BME280;1889;50.058;8.688;2023-02-17T09:00:17;100850.31;;;13.28;70.60
3748;BME280;1889;50.058;8.688;2023-02-17T09:02:46;100843.20;;;13.30;71.00
3748;BME280;1889;50.058;8.688;2023-02-17T09:05:16;100842.42;;;13.25;71.65
3748;BME280;1889;50.058;8.688;2023-02-17T09:07:45;100855.62;;;13.27;71.12
3748;BME280;1889;50.058;8.688;2023-02-17T09:10:14;100849.03;;;13.25;71.66
3748;BME280;1889;50.058;8.688;2023-02-17T09:12:44;100857.22;;;13.37;71.33
3748;BME280;1889;50.058;8.688;2023-02-17T09:15:13;100858.11;;;13.36;71.19
3748;BME280;1889;50.058;8.688;2023-02-17T09:17:42;100864.72;;;13.36;72.39
3748;BME280;1889;50.058;8.688;2023-02-17T09:20:12;100859.41;;;13.38;72.29
3748;BME280;1889;50.058;8.688;2023-02-17T09:22:41;100858.38;;;13.21;72.90
3748;BME280;1889;50.058;8.688;2023-02-17T09:25:11;100845.03;;;13.28;72.75
3748;BME280;1889;50.058;8.688;2023-02-17T09:27:40;100856.03;;;13.29;72.87
3748;BME280;1889;50.058;8.688;2023-02-17T09:30:10;100871.52;;;13.24;73.12
3748;BME280;1889;50.058;8.688;2023-02-17T09:32:43;100870.27;;;13.21;73.29
3748;BME280;1889;50.058;8.688;2023-02-17T09:35:16;100867.45;;;13.30;72.96
3748;BME280;1889;50.058;8.688;2023-02-17T09:37:46;100855.92;;;13.35;72.71
3748;BME280;1889;50.058;8.688;2023-02-17T09:40:25;100859.61;;;13.51;72.42
3748;BME280;1889;50.058;8.688;2023-02-17T09:42:50;100861.34;;;13.28;73.56
3748;BME280;1889;50.058;8.688;2023-02-17T09:45:23;100871.45;;;12.98;74.88
3748;BME280;1889;50.058;8.688;2023-02-17T09:47:57;100868.86;;;13.25;73.80
3748;BME280;1889;50.058;8.688;2023-02-17T09:50:31;100866.96;;;13.33;73.58
3748;BME280;1889;50.058;8.688;2023-02-17T09:53:05;100861.16;;;13.10;74.99
3748;BME280;1889;50.058;8.688;2023-02-17T09:55:40;100868.91;;;12.64;77.30
3748;BME280;1889;50.058;8.688;2023-02-17T09:58:17;100865.22;;;12.74;77.11
3748;BME280;1889;50.058;8.688;2023-02-17T10:00:50;100872.09;;;12.87;77.01
3748;BME280;1889;50.058;8.688;2023-02-17T10:03:29;100861.89;;;13.21;75.29
3748;BME280;1889;50.058;8.688;2023-02-17T10:06:03;100860.02;;;13.28;75.15
3748;BME280;1889;50.058;8.688;2023-02-17T10:08:35;100864.86;;;13.28;75.18
3748;BME280;1889;50.058;8.688;2023-02-17T10:11:13;100864.01;;;13.52;74.60
3748;BME280;1889;50.058;8.688;2023-02-17T10:13:41;100853.27;;;13.61;73.89
3748;BME280;1889;50.058;8.688;2023-02-17T10:16:19;100856.22;;;13.68;73.89
3748;BME280;1889;50.058;8.688;2023-02-17T10:18:58;100863.93;;;13.55;73.98
3748;BME280;1889;50.058;8.688;2023-02-17T10:21:34;100872.13;;;13.40;74.62
3748;BME280;1889;50.058;8.688;2023-02-17T10:24:04;100867.84;;;13.34;74.78
3748;BME280;1889;50.058;8.688;2023-02-17T10:32:20;100897.00;;;12.98;77.11
3748;BME280;1889;50.058;8.688;2023-02-17T10:35:12;100888.73;;;12.92;77.08
3748;BME280;1889;50.058;8.688;2023-02-17T10:37:53;100889.45;;;13.04;76.71
3748;BME280;1889;50.058;8.688;2023-02-17T10:40:23;100883.87;;;13.23;76.13
3748;BME280;1889;50.058;8.688;2023-02-17T10:42:55;100893.77;;;13.08;76.78
3748;BME280;1889;50.058;8.688;2023-02-17T10:45:39;100893.25;;;13.43;75.24
3748;BME280;1889;50.058;8.688;2023-02-17T10:48:21;100892.22;;;13.51;75.09
3748;BME280;1889;50.058;8.688;2023-02-17T10:50:51;100887.34;;;13.54;74.74
3748;BME280;1889;50.058;8.688;2023-02-17T10:53:24;100887.84;;;13.49;74.42
3748;BME280;1889;50.058;8.688;2023-02-17T10:56:00;100877.13;;;13.80;73.92
3748;BME280;1889;50.058;8.688;2023-02-17T11:01:20;100878.39;;;13.85;73.10
3748;BME280;1889;50.058;8.688;2023-02-17T11:04:10;100883.38;;;13.54;74.21
3748;BME280;1889;50.058;8.688;2023-02-17T11:06:53;100879.75;;;13.32;75.06
3748;BME280;1889;50.058;8.688;2023-02-17T11:09:28;100873.28;;;13.50;74.79
3748;BME280;1889;50.058;8.688;2023-02-17T11:12:02;100879.59;;;13.91;73.50
3748;BME280;1889;50.058;8.688;2023-02-17T11:14:32;100871.33;;;13.61;74.25
3748;BME280;1889;50.058;8.688;2023-02-17T11:17:15;100872.27;;;14.03;73.18
3748;BME280;1889;50.058;8.688;2023-02-17T11:19:56;100872.57;;;13.88;73.12
3748;BME280;1889;50.058;8.688;2023-02-17T11:22:40;100858.35;;;14.16;72.65
3748;BME280;1889;50.058;8.688;2023-02-17T11:25:20;100857.37;;;14.20;72.29
3748;BME280;1889;50.058;8.688;2023-02-17T11:27:57;100858.88;;;14.11;71.83
3748;BME280;1889;50.058;8.688;2023-02-17T11:30:28;100845.96;;;14.18;72.22
3748;BME280;1889;50.058;8.688;2023-02-17T11:32:58;100849.97;;;14.36;71.56
3748;BME280;1889;50.058;8.688;2023-02-17T11:38:19;100844.98;;;14.64;71.48
3748;BME280;1889;50.058;8.688;2023-02-17T11:40:53;100844.47;;;14.85;69.82
3748;BME280;1889;50.058;8.688;2023-02-17T11:43:23;100837.85;;;14.85;70.30
3748;BME280;1889;50.058;8.688;2023-02-17T11:48:44;100830.98;;;14.96;68.76
3748;BME280;1889;50.058;8.688;2023-02-17T11:51:15;100836.22;;;14.99;68.52
3748;BME280;1889;50.058;8.688;2023-02-17T11:54:03;100829.40;;;15.06;69.09
3748;BME280;1889;50.058;8.688;2023-02-17T11:56:35;100838.39;;;15.17;68.50
3748;BME280;1889;50.058;8.688;2023-02-17T12:02:00;100830.74;;;14.87;68.63
3748;BME280;1889;50.058;8.688;2023-02-17T12:04:32;100837.32;;;15.08;68.55
3748;BME280;1889;50.058;8.688;2023-02-17T12:07:31;100822.48;;;15.17;68.45
3748;BME280;1889;50.058;8.688;2023-02-17T12:10:04;100812.06;;;15.09;68.39
3748;BME280;1889;50.058;8.688;2023-02-17T12:15:53;100808.55;;;14.73;69.69
3748;BME280;1889;50.058;8.688;2023-02-17T12:19:27;100819.98;;;14.56;70.31
3748;BME280;1889;50.058;8.688;2023-02-17T12:21:11;100814.00;;;14.67;70.42
3748;BME280;1889;50.058;8.688;2023-02-17T12:26:49;100809.33;;;14.40;70.90
3748;BME280;1889;50.058;8.688;2023-02-17T12:29:54;100807.77;;;14.68;70.38
3748;BME280;1889;50.058;8.688;2023-02-17T12:32:45;100808.48;;;14.94;69.35
3748;BME280;1889;50.058;8.688;2023-02-17T12:35:16;100811.53;;;14.77;70.04
3748;BME280;1889;50.058;8.688;2023-02-17T12:37:55;100795.95;;;14.83;69.75
3748;BME280;1889;50.058;8.688;2023-02-17T12:40:37;100794.90;;;14.90;69.57
3748;BME280;1889;50.058;8.688;2023-02-17T12:43:56;100780.13;;;14.80;69.48
3748;BME280;1889;50.058;8.688;2023-02-17T12:45:47;100777.54;;;14.95;69.28
3748;BME280;1889;50.058;8.688;2023-02-17T12:48:37;100758.02;;;14.99;69.04
3748;BME280;1889;50.058;8.688;2023-02-17T12:51:20;100756.70;;;15.15;68.91
3748;BME280;1889;50.058;8.688;2023-02-17T12:53:54;100763.80;;;15.31;67.87
3748;BME280;1889;50.058;8.688;2023-02-17T12:59:10;100723.18;;;15.61;67.08
3748;BME280;1889;50.058;8.688;2023-02-17T13:01:53;100738.84;;;15.70;66.49
3748;BME280;1889;50.058;8.688;2023-02-17T13:04:23;100738.84;;;15.70;66.49
3748;BME280;1889;50.058;8.688;2023-02-17T13:09:36;100752.17;;;15.51;66.01
3748;BME280;1889;50.058;8.688;2023-02-17T13:15:03;100749.86;;;15.56;66.21
3748;BME280;1889;50.058;8.688;2023-02-17T13:17:37;100770.86;;;15.80;65.99
3748;BME280;1889;50.058;8.688;2023-02-17T13:22:47;100756.28;;;15.64;66.01
3748;BME280;1889;50.058;8.688;2023-02-17T13:25:28;100751.55;;;15.74;65.94
3748;BME280;1889;50.058;8.688;2023-02-17T13:27:59;100745.75;;;15.76;66.13
3748;BME280;1889;50.058;8.688;2023-02-17T13:30:40;100745.75;;;15.76;66.13
3748;BME280;1889;50.058;8.688;2023-02-17T13:35:54;100734.45;;;15.69;65.25
3748;BME280;1889;50.058;8.688;2023-02-17T13:38:31;100734.45;;;15.69;65.25
3748;BME280;1889;50.058;8.688;2023-02-17T13:41:04;100736.19;;;15.70;65.73
3748;BME280;1889;50.058;8.688;2023-02-17T13:43:41;100736.42;;;15.77;65.97
3748;BME280;1889;50.058;8.688;2023-02-17T13:46:19;100736.42;;;15.77;65.97
3748;BME280;1889;50.058;8.688;2023-02-17T13:49:04;100743.13;;;15.74;65.90
3748;BME280;1889;50.058;8.688;2023-02-17T13:51:34;100742.56;;;15.79;65.96
3748;BME280;1889;50.058;8.688;2023-02-17T13:54:05;100740.44;;;15.76;66.26
3748;BME280;1889;50.058;8.688;2023-02-17T13:56:35;100740.44;;;15.76;66.26
3748;BME280;1889;50.058;8.688;2023-02-17T13:59:15;100734.95;;;15.82;65.97
3748;BME280;1889;50.058;8.688;2023-02-17T14:01:45;100720.12;;;15.75;65.88
3748;BME280;1889;50.058;8.688;2023-02-17T14:04:24;100731.82;;;15.51;67.21
3748;BME280;1889;50.058;8.688;2023-02-17T14:06:55;100736.84;;;15.78;66.13
3748;BME280;1889;50.058;8.688;2023-02-17T14:09:31;100741.81;;;15.74;66.06
3748;BME280;1889;50.058;8.688;2023-02-17T14:12:03;100739.34;;;15.83;66.80
3748;BME280;1889;50.058;8.688;2023-02-17T14:14:37;100742.59;;;16.07;65.84
3748;BME280;1889;50.058;8.688;2023-02-17T14:19:56;100723.53;;;16.37;64.77
3748;BME280;1889;50.058;8.688;2023-02-17T14:22:30;100721.47;;;16.32;64.60
3748;BME280;1889;50.058;8.688;2023-02-17T14:25:11;100714.16;;;16.25;64.20
3748;BME280;1889;50.058;8.688;2023-02-17T14:27:44;100714.16;;;16.25;64.20
3748;BME280;1889;50.058;8.688;2023-02-17T14:30:27;100700.05;;;15.95;65.10
3748;BME280;1889;50.058;8.688;2023-02-17T14:33:03;100715.47;;;16.12;64.95
3748;BME280;1889;50.058;8.688;2023-02-17T14:35:33;100698.37;;;16.06;65.28
3748;BME280;1889;50.058;8.688;2023-02-17T14:38:21;100698.37;;;16.06;65.28